sensor_id;sensor_type;location;lat;lon;timestamp;temperature;humidity
66710;DHT22;53624;0.000;0.000;2023-06-26T00:01:43;20.50;99.90
66710;DHT22;53624;0.000;0.000;2023-06-26T00:04:11;20.40;99.90
66710;DHT22;53624;0.000;0.000;2023-06-26T00:06:40;20.40;99.90
66710;DHT22;53624;0.000;0.000;2023-06-26T00:09:07;20.40;99.90
66710;DHT22;53624;0.000;0.000;2023-06-26T00:11:35;20.50;99.90
66710;DHT22;53624;0.000;0.000;2023-06-26T00:14:02;20.60;99.90
66710;DHT22;53624;0.000;0.000;2023-06-26T00:16:31;20.50;99.90
66710;DHT22;53624;0.000;0.000;2023-06-26T00:18:59;20.40;99.90
66710;DHT22;53624;0.000;0.000;2023-06-26T00:21:26;20.30;99.90
66710;DHT22;53624;0.000;0.000;2023-06-26T00:23:54;20.40;99.90
66710;DHT22;53624;0.000;0.000;2023-06-26T00:26:21;20.40;99.90
66710;DHT22;53624;0.000;0.000;2023-06-26T00:28:50;20.20;99.90
66710;DHT22;53624;0.000;0.000;2023-06-26T00:31:17;20.10;99.90
66710;DHT22;53624;0.000;0.000;2023-06-26T00:33:46;20.20;99.90
66710;DHT22;53624;0.000;0.000;2023-06-26T00:36:13;20.20;99.90
66710;DHT22;53624;0.000;0.000;2023-06-26T00:38:41;20.30;99.90
66710;DHT22;53624;0.000;0.000;2023-06-26T00:41:09;20.20;99.90
66710;DHT22;53624;0.000;0.000;2023-06-26T00:43:38;20.10;99.90
66710;DHT22;53624;0.000;0.000;2023-06-26T00:46:10;20.30;99.90
66710;DHT22;53624;0.000;0.000;2023-06-26T00:48:38;20.30;99.90
66710;DHT22;53624;0.000;0.000;2023-06-26T00:51:07;20.40;99.90
66710;DHT22;53624;0.000;0.000;2023-06-26T00:53:35;20.10;99.90
66710;DHT22;53624;0.000;0.000;2023-06-26T00:56:03;20.00;99.90
66710;DHT22;53624;0.000;0.000;2023-06-26T00:58:30;20.00;99.90
66710;DHT22;53624;0.000;0.000;2023-06-26T01:00:57;20.10;99.90
66710;DHT22;53624;0.000;0.000;2023-06-26T01:03:26;19.90;99.90
66710;DHT22;53624;0.000;0.000;2023-06-26T01:05:55;19.80;99.90
66710;DHT22;53624;0.000;0.000;2023-06-26T01:08:25;19.80;99.90
66710;DHT22;53624;0.000;0.000;2023-06-26T01:10:53;19.90;99.90
66710;DHT22;53624;0.000;0.000;2023-06-26T01:13:20;19.90;99.90
66710;DHT22;53624;0.000;0.000;2023-06-26T01:15:48;19.80;99.90
66710;DHT22;53624;0.000;0.000;2023-06-26T01:18:16;19.70;99.90
66710;DHT22;53624;0.000;0.000;2023-06-26T01:20:43;19.80;99.90
66710;DHT22;53624;0.000;0.000;2023-06-26T01:23:12;19.80;99.90
66710;DHT22;53624;0.000;0.000;2023-06-26T01:25:47;19.70;99.90
66710;DHT22;53624;0.000;0.000;2023-06-26T01:28:21;19.60;99.90
66710;DHT22;53624;0.000;0.000;2023-06-26T01:30:49;19.50;99.90
66710;DHT22;53624;0.000;0.000;2023-06-26T01:33:18;19.60;99.90
66710;DHT22;53624;0.000;0.000;2023-06-26T01:35:45;19.60;99.90
66710;DHT22;53624;0.000;0.000;2023-06-26T01:38:14;19.60;99.90
66710;DHT22;53624;0.000;0.000;2023-06-26T01:40:42;19.60;99.90
66710;DHT22;53624;0.000;0.000;2023-06-26T01:43:14;19.80;99.90
66710;DHT22;53624;0.000;0.000;2023-06-26T01:45:44;19.80;99.90
66710;DHT22;53624;0.000;0.000;2023-06-26T01:48:13;19.80;99.90
66710;DHT22;53624;0.000;0.000;2023-06-26T01:50:42;19.70;99.90
66710;DHT22;53624;0.000;0.000;2023-06-26T01:53:12;19.80;99.90
66710;DHT22;53624;0.000;0.000;2023-06-26T01:55:41;19.90;99.90
66710;DHT22;53624;0.000;0.000;2023-06-26T01:58:10;19.60;99.90
66710;DHT22;53624;0.000;0.000;2023-06-26T02:00:37;19.60;99.90
66710;DHT22;53624;0.000;0.000;2023-06-26T02:03:06;19.60;99.90
66710;DHT22;53624;0.000;0.000;2023-06-26T02:05:34;19.60;99.90
66710;DHT22;53624;0.000;0.000;2023-06-26T02:08:01;19.60;99.90
66710;DHT22;53624;0.000;0.000;2023-06-26T02:10:30;19.50;99.90
66710;DHT22;53624;0.000;0.000;2023-06-26T02:12:57;19.60;99.90
66710;DHT22;53624;0.000;0.000;2023-06-26T02:15:25;19.70;99.90
66710;DHT22;53624;0.000;0.000;2023-06-26T02:17:53;19.60;99.90
66710;DHT22;53624;0.000;0.000;2023-06-26T02:20:22;19.50;99.90
66710;DHT22;53624;0.000;0.000;2023-06-26T02:22:49;19.60;99.90
66710;DHT22;53624;0.000;0.000;2023-06-26T02:25:17;19.60;99.90
66710;DHT22;53624;0.000;0.000;2023-06-26T02:27:45;19.60;99.90
66710;DHT22;53624;0.000;0.000;2023-06-26T02:30:12;19.60;99.90
66710;DHT22;53624;0.000;0.000;2023-06-26T02:32:39;19.60;99.90
66710;DHT22;53624;0.000;0.000;2023-06-26T02:35:07;19.60;99.90
66710;DHT22;53624;0.000;0.000;2023-06-26T02:37:36;19.70;99.90
66710;DHT22;53624;0.000;0.000;2023-06-26T02:40:04;19.50;99.90
66710;DHT22;53624;0.000;0.000;2023-06-26T02:42:34;19.50;99.90
66710;DHT22;53624;0.000;0.000;2023-06-26T02:45:02;19.50;99.90
66710;DHT22;53624;0.000;0.000;2023-06-26T02:47:31;19.50;99.90
66710;DHT22;53624;0.000;0.000;2023-06-26T02:49:59;19.30;99.90
66710;DHT22;53624;0.000;0.000;2023-06-26T02:52:31;19.30;99.90
66710;DHT22;53624;0.000;0.000;2023-06-26T02:55:00;19.40;99.90
66710;DHT22;53624;0.000;0.000;2023-06-26T02:57:27;19.30;99.90
66710;DHT22;53624;0.000;0.000;2023-06-26T02:59:55;19.10;99.90
66710;DHT22;53624;0.000;0.000;2023-06-26T03:02:22;19.30;99.90
66710;DHT22;53624;0.000;0.000;2023-06-26T03:04:52;19.30;99.90
66710;DHT22;53624;0.000;0.000;2023-06-26T03:07:19;19.20;99.90
66710;DHT22;53624;0.000;0.000;2023-06-26T03:09:47;19.40;99.90
66710;DHT22;53624;0.000;0.000;2023-06-26T03:12:15;19.30;99.90
66710;DHT22;53624;0.000;0.000;2023-06-26T03:14:43;19.30;99.90
66710;DHT22;53624;0.000;0.000;2023-06-26T03:17:10;19.20;99.90
66710;DHT22;53624;0.000;0.000;2023-06-26T03:19:39;19.20;99.90
66710;DHT22;53624;0.000;0.000;2023-06-26T03:22:18;19.30;99.90
66710;DHT22;53624;0.000;0.000;2023-06-26T03:24:46;19.20;99.90
66710;DHT22;53624;0.000;0.000;2023-06-26T03:27:14;18.90;99.90
66710;DHT22;53624;0.000;0.000;2023-06-26T03:29:43;18.80;99.90
66710;DHT22;53624;0.000;0.000;2023-06-26T03:32:11;18.80;99.90
66710;DHT22;53624;0.000;0.000;2023-06-26T03:34:38;18.70;99.90
66710;DHT22;53624;0.000;0.000;2023-06-26T03:37:06;18.90;99.90
66710;DHT22;53624;0.000;0.000;2023-06-26T03:39:34;19.00;99.90
66710;DHT22;53624;0.000;0.000;2023-06-26T03:42:02;19.20;99.90
66710;DHT22;53624;0.000;0.000;2023-06-26T03:44:30;18.90;99.90
66710;DHT22;53624;0.000;0.000;2023-06-26T03:46:59;18.90;99.90
66710;DHT22;53624;0.000;0.000;2023-06-26T03:49:27;18.90;99.90
66710;DHT22;53624;0.000;0.000;2023-06-26T03:51:54;18.90;99.90
66710;DHT22;53624;0.000;0.000;2023-06-26T03:54:22;19.00;99.90
66710;DHT22;53624;0.000;0.000;2023-06-26T03:56:49;19.00;99.90
66710;DHT22;53624;0.000;0.000;2023-06-26T03:59:17;19.00;99.90
66710;DHT22;53624;0.000;0.000;2023-06-26T04:01:44;18.90;99.90
66710;DHT22;53624;0.000;0.000;2023-06-26T04:04:15;18.60;99.90
66710;DHT22;53624;0.000;0.000;2023-06-26T04:06:42;18.70;99.90
66710;DHT22;53624;0.000;0.000;2023-06-26T04:09:10;18.60;99.90
66710;DHT22;53624;0.000;0.000;2023-06-26T04:11:37;18.60;99.90
66710;DHT22;53624;0.000;0.000;2023-06-26T04:14:05;18.80;99.90
66710;DHT22;53624;0.000;0.000;2023-06-26T04:16:32;18.70;99.90
66710;DHT22;53624;0.000;0.000;2023-06-26T04:19:00;18.60;99.90
66710;DHT22;53624;0.000;0.000;2023-06-26T04:21:30;18.80;99.90
66710;DHT22;53624;0.000;0.000;2023-06-26T04:23:57;18.80;99.90
66710;DHT22;53624;0.000;0.000;2023-06-26T04:26:25;18.80;99.90
66710;DHT22;53624;0.000;0.000;2023-06-26T04:28:53;18.90;99.90
66710;DHT22;53624;0.000;0.000;2023-06-26T04:31:21;18.90;99.90
66710;DHT22;53624;0.000;0.000;2023-06-26T04:33:49;18.90;99.90
66710;DHT22;53624;0.000;0.000;2023-06-26T04:36:17;18.80;99.90
66710;DHT22;53624;0.000;0.000;2023-06-26T04:38:46;18.80;99.90
66710;DHT22;53624;0.000;0.000;2023-06-26T04:41:14;18.90;99.90
66710;DHT22;53624;0.000;0.000;2023-06-26T04:43:41;18.90;99.90
66710;DHT22;53624;0.000;0.000;2023-06-26T04:46:09;18.90;99.90
66710;DHT22;53624;0.000;0.000;2023-06-26T04:48:36;18.90;99.90
66710;DHT22;53624;0.000;0.000;2023-06-26T04:51:03;19.00;99.90
66710;DHT22;53624;0.000;0.000;2023-06-26T04:53:31;19.00;99.90
66710;DHT22;53624;0.000;0.000;2023-06-26T04:56:00;19.00;99.90
66710;DHT22;53624;0.000;0.000;2023-06-26T04:58:27;18.90;99.90
66710;DHT22;53624;0.000;0.000;2023-06-26T05:00:55;18.90;99.90
66710;DHT22;53624;0.000;0.000;2023-06-26T05:03:22;19.00;99.90
66710;DHT22;53624;0.000;0.000;2023-06-26T05:05:49;19.10;99.90
66710;DHT22;53624;0.000;0.000;2023-06-26T05:08:20;19.20;99.90
66710;DHT22;53624;0.000;0.000;2023-06-26T05:10:47;19.20;99.90
66710;DHT22;53624;0.000;0.000;2023-06-26T05:13:16;19.30;99.90
66710;DHT22;53624;0.000;0.000;2023-06-26T05:15:45;19.40;99.90
66710;DHT22;53624;0.000;0.000;2023-06-26T05:18:13;19.40;99.90
66710;DHT22;53624;0.000;0.000;2023-06-26T05:20:41;19.50;99.90
66710;DHT22;53624;0.000;0.000;2023-06-26T05:23:10;19.60;99.90
66710;DHT22;53624;0.000;0.000;2023-06-26T05:25:38;19.70;99.90
66710;DHT22;53624;0.000;0.000;2023-06-26T05:28:06;19.70;99.90
66710;DHT22;53624;0.000;0.000;2023-06-26T05:30:37;19.60;99.90
66710;DHT22;53624;0.000;0.000;2023-06-26T05:33:05;19.70;99.90
66710;DHT22;53624;0.000;0.000;2023-06-26T05:35:34;19.80;99.90
66710;DHT22;53624;0.000;0.000;2023-06-26T05:38:03;19.90;99.90
66710;DHT22;53624;0.000;0.000;2023-06-26T05:40:31;20.10;99.90
66710;DHT22;53624;0.000;0.000;2023-06-26T05:43:00;20.20;99.90
66710;DHT22;53624;0.000;0.000;2023-06-26T05:45:28;20.20;99.90
66710;DHT22;53624;0.000;0.000;2023-06-26T05:47:57;20.30;99.90
66710;DHT22;53624;0.000;0.000;2023-06-26T05:50:24;20.40;99.90
66710;DHT22;53624;0.000;0.000;2023-06-26T05:52:52;20.50;99.90
66710;DHT22;53624;0.000;0.000;2023-06-26T05:55:21;20.50;99.90
66710;DHT22;53624;0.000;0.000;2023-06-26T05:57:50;20.60;99.90
66710;DHT22;53624;0.000;0.000;2023-06-26T06:00:18;20.80;99.90
66710;DHT22;53624;0.000;0.000;2023-06-26T06:02:46;20.90;99.90
66710;DHT22;53624;0.000;0.000;2023-06-26T06:05:15;21.00;99.90
66710;DHT22;53624;0.000;0.000;2023-06-26T06:07:42;21.10;99.90
66710;DHT22;53624;0.000;0.000;2023-06-26T06:10:10;21.30;99.90
66710;DHT22;53624;0.000;0.000;2023-06-26T06:12:37;21.40;99.90
66710;DHT22;53624;0.000;0.000;2023-06-26T06:15:05;21.60;99.90
66710;DHT22;53624;0.000;0.000;2023-06-26T06:17:32;21.80;99.90
66710;DHT22;53624;0.000;0.000;2023-06-26T06:20:00;21.90;99.90
66710;DHT22;53624;0.000;0.000;2023-06-26T06:22:29;22.10;99.90
66710;DHT22;53624;0.000;0.000;2023-06-26T06:24:56;22.30;99.90
66710;DHT22;53624;0.000;0.000;2023-06-26T06:27:24;22.40;99.90
66710;DHT22;53624;0.000;0.000;2023-06-26T06:29:51;22.50;99.90
66710;DHT22;53624;0.000;0.000;2023-06-26T06:32:19;22.70;99.90
66710;DHT22;53624;0.000;0.000;2023-06-26T06:34:46;23.00;99.90
66710;DHT22;53624;0.000;0.000;2023-06-26T06:37:13;23.30;99.90
66710;DHT22;53624;0.000;0.000;2023-06-26T06:39:42;23.40;99.90
66710;DHT22;53624;0.000;0.000;2023-06-26T06:42:10;23.70;99.90
66710;DHT22;53624;0.000;0.000;2023-06-26T06:44:37;24.00;99.90
66710;DHT22;53624;0.000;0.000;2023-06-26T06:47:05;24.20;99.90
66710;DHT22;53624;0.000;0.000;2023-06-26T06:49:32;24.40;99.90
66710;DHT22;53624;0.000;0.000;2023-06-26T06:52:00;24.50;99.90
66710;DHT22;53624;0.000;0.000;2023-06-26T06:54:27;24.50;99.90
66710;DHT22;53624;0.000;0.000;2023-06-26T06:56:56;24.60;99.90
66710;DHT22;53624;0.000;0.000;2023-06-26T06:59:24;24.70;99.90
66710;DHT22;53624;0.000;0.000;2023-06-26T07:01:51;25.10;99.90
66710;DHT22;53624;0.000;0.000;2023-06-26T07:04:19;25.00;99.90
66710;DHT22;53624;0.000;0.000;2023-06-26T07:06:46;25.20;99.90
66710;DHT22;53624;0.000;0.000;2023-06-26T07:09:13;25.50;99.90
66710;DHT22;53624;0.000;0.000;2023-06-26T07:11:41;25.70;99.90
66710;DHT22;53624;0.000;0.000;2023-06-26T07:14:10;25.90;99.90
66710;DHT22;53624;0.000;0.000;2023-06-26T07:16:37;26.10;99.50
66710;DHT22;53624;0.000;0.000;2023-06-26T07:19:05;26.20;99.60
66710;DHT22;53624;0.000;0.000;2023-06-26T07:21:32;26.50;99.10
66710;DHT22;53624;0.000;0.000;2023-06-26T07:23:59;26.60;99.80
66710;DHT22;53624;0.000;0.000;2023-06-26T07:26:27;26.80;99.10
66710;DHT22;53624;0.000;0.000;2023-06-26T07:28:55;27.10;98.30
66710;DHT22;53624;0.000;0.000;2023-06-26T07:31:24;27.40;97.90
66710;DHT22;53624;0.000;0.000;2023-06-26T07:33:51;27.60;95.00
66710;DHT22;53624;0.000;0.000;2023-06-26T07:36:19;28.10;95.20
66710;DHT22;53624;0.000;0.000;2023-06-26T07:38:47;28.40;94.40
66710;DHT22;53624;0.000;0.000;2023-06-26T07:41:14;28.60;94.60
66710;DHT22;53624;0.000;0.000;2023-06-26T07:43:42;28.30;94.80
66710;DHT22;53624;0.000;0.000;2023-06-26T07:46:09;28.90;95.90
66710;DHT22;53624;0.000;0.000;2023-06-26T07:48:38;29.00;94.60
66710;DHT22;53624;0.000;0.000;2023-06-26T07:51:05;29.00;93.90
66710;DHT22;53624;0.000;0.000;2023-06-26T07:53:33;29.00;94.00
66710;DHT22;53624;0.000;0.000;2023-06-26T07:56:00;28.30;94.60
66710;DHT22;53624;0.000;0.000;2023-06-26T07:58:28;28.20;95.10
66710;DHT22;53624;0.000;0.000;2023-06-26T08:00:55;27.90;96.10
66710;DHT22;53624;0.000;0.000;2023-06-26T08:03:22;27.70;95.80
66710;DHT22;53624;0.000;0.000;2023-06-26T08:05:51;27.50;96.10
66710;DHT22;53624;0.000;0.000;2023-06-26T08:08:19;27.10;97.10
66710;DHT22;53624;0.000;0.000;2023-06-26T08:10:46;27.40;96.80
66710;DHT22;53624;0.000;0.000;2023-06-26T08:13:14;27.90;96.50
66710;DHT22;53624;0.000;0.000;2023-06-26T08:15:41;28.30;95.70
66710;DHT22;53624;0.000;0.000;2023-06-26T08:18:09;28.10;95.30
66710;DHT22;53624;0.000;0.000;2023-06-26T08:20:36;28.30;95.50
66710;DHT22;53624;0.000;0.000;2023-06-26T08:23:05;28.50;96.00
66710;DHT22;53624;0.000;0.000;2023-06-26T08:25:32;28.60;94.00
66710;DHT22;53624;0.000;0.000;2023-06-26T08:28:00;28.90;93.90
66710;DHT22;53624;0.000;0.000;2023-06-26T08:30:27;29.10;93.70
66710;DHT22;53624;0.000;0.000;2023-06-26T08:32:55;29.00;93.80
66710;DHT22;53624;0.000;0.000;2023-06-26T08:35:22;28.50;94.20
66710;DHT22;53624;0.000;0.000;2023-06-26T08:37:50;28.80;94.80
66710;DHT22;53624;0.000;0.000;2023-06-26T08:40:19;29.20;94.90
66710;DHT22;53624;0.000;0.000;2023-06-26T08:42:48;29.40;97.30
66710;DHT22;53624;0.000;0.000;2023-06-26T08:45:19;29.60;93.90
66710;DHT22;53624;0.000;0.000;2023-06-26T08:47:47;29.60;94.40
66710;DHT22;53624;0.000;0.000;2023-06-26T08:50:18;29.60;94.20
66710;DHT22;53624;0.000;0.000;2023-06-26T08:52:49;29.80;92.00
66710;DHT22;53624;0.000;0.000;2023-06-26T08:55:20;29.40;92.60
66710;DHT22;53624;0.000;0.000;2023-06-26T08:57:50;29.20;94.20
66710;DHT22;53624;0.000;0.000;2023-06-26T09:00:17;29.20;93.20
66710;DHT22;53624;0.000;0.000;2023-06-26T09:02:46;29.50;93.10
66710;DHT22;53624;0.000;0.000;2023-06-26T09:05:13;29.80;93.80
66710;DHT22;53624;0.000;0.000;2023-06-26T09:07:41;30.00;92.90
66710;DHT22;53624;0.000;0.000;2023-06-26T09:10:09;30.10;92.60
66710;DHT22;53624;0.000;0.000;2023-06-26T09:12:38;30.30;93.70
66710;DHT22;53624;0.000;0.000;2023-06-26T09:15:05;30.20;92.70
66710;DHT22;53624;0.000;0.000;2023-06-26T09:17:36;30.30;93.30
66710;DHT22;53624;0.000;0.000;2023-06-26T09:20:05;30.40;93.60
66710;DHT22;53624;0.000;0.000;2023-06-26T09:22:35;30.40;90.30
66710;DHT22;53624;0.000;0.000;2023-06-26T09:25:04;30.30;91.60
66710;DHT22;53624;0.000;0.000;2023-06-26T09:27:32;30.30;90.70
66710;DHT22;53624;0.000;0.000;2023-06-26T09:30:01;30.40;94.00
66710;DHT22;53624;0.000;0.000;2023-06-26T09:32:29;30.40;92.80
66710;DHT22;53624;0.000;0.000;2023-06-26T09:34:56;30.30;92.20
66710;DHT22;53624;0.000;0.000;2023-06-26T09:37:26;30.50;91.80
66710;DHT22;53624;0.000;0.000;2023-06-26T09:39:53;30.70;91.70
66710;DHT22;53624;0.000;0.000;2023-06-26T09:42:21;30.60;90.80
66710;DHT22;53624;0.000;0.000;2023-06-26T09:44:48;30.60;90.40
66710;DHT22;53624;0.000;0.000;2023-06-26T09:47:18;30.70;91.10
66710;DHT22;53624;0.000;0.000;2023-06-26T09:49:46;30.70;91.60
66710;DHT22;53624;0.000;0.000;2023-06-26T09:52:14;30.70;91.00
66710;DHT22;53624;0.000;0.000;2023-06-26T09:54:42;30.70;90.00
66710;DHT22;53624;0.000;0.000;2023-06-26T09:57:12;30.60;90.90
66710;DHT22;53624;0.000;0.000;2023-06-26T09:59:41;30.60;91.40
66710;DHT22;53624;0.000;0.000;2023-06-26T10:02:08;30.80;91.00
66710;DHT22;53624;0.000;0.000;2023-06-26T10:04:38;30.90;91.40
66710;DHT22;53624;0.000;0.000;2023-06-26T10:07:06;30.90;90.60
66710;DHT22;53624;0.000;0.000;2023-06-26T10:09:34;30.90;90.40
66710;DHT22;53624;0.000;0.000;2023-06-26T10:12:04;30.70;92.80
66710;DHT22;53624;0.000;0.000;2023-06-26T10:14:34;30.90;91.00
66710;DHT22;53624;0.000;0.000;2023-06-26T10:17:03;30.80;87.90
66710;DHT22;53624;0.000;0.000;2023-06-26T10:19:31;30.90;90.60
66710;DHT22;53624;0.000;0.000;2023-06-26T10:22:00;30.90;90.40
66710;DHT22;53624;0.000;0.000;2023-06-26T10:24:29;30.80;88.70
66710;DHT22;53624;0.000;0.000;2023-06-26T10:26:59;30.80;89.80
66710;DHT22;53624;0.000;0.000;2023-06-26T10:29:29;30.70;89.60
66710;DHT22;53624;0.000;0.000;2023-06-26T10:31:58;30.70;90.00
66710;DHT22;53624;0.000;0.000;2023-06-26T10:34:26;30.80;89.00
66710;DHT22;53624;0.000;0.000;2023-06-26T10:37:01;30.90;88.70
66710;DHT22;53624;0.000;0.000;2023-06-26T10:39:45;30.90;89.90
66710;DHT22;53624;0.000;0.000;2023-06-26T10:42:13;30.90;90.30
66710;DHT22;53624;0.000;0.000;2023-06-26T10:44:40;30.90;88.90
66710;DHT22;53624;0.000;0.000;2023-06-26T10:47:09;30.90;90.20
66710;DHT22;53624;0.000;0.000;2023-06-26T10:49:37;30.80;88.30
66710;DHT22;53624;0.000;0.000;2023-06-26T10:52:07;30.90;90.50
66710;DHT22;53624;0.000;0.000;2023-06-26T10:54:34;30.90;90.40
66710;DHT22;53624;0.000;0.000;2023-06-26T10:57:02;30.90;86.60
66710;DHT22;53624;0.000;0.000;2023-06-26T10:59:31;30.70;86.30
66710;DHT22;53624;0.000;0.000;2023-06-26T11:01:59;30.80;85.90
66710;DHT22;53624;0.000;0.000;2023-06-26T11:04:36;30.80;90.30
66710;DHT22;53624;0.000;0.000;2023-06-26T11:07:19;30.70;87.70
66710;DHT22;53624;0.000;0.000;2023-06-26T11:09:53;30.70;88.60
66710;DHT22;53624;0.000;0.000;2023-06-26T11:12:39;30.90;87.70
66710;DHT22;53624;0.000;0.000;2023-06-26T11:15:08;31.00;91.00
66710;DHT22;53624;0.000;0.000;2023-06-26T11:17:36;30.90;88.90
66710;DHT22;53624;0.000;0.000;2023-06-26T11:20:05;30.90;90.30
66710;DHT22;53624;0.000;0.000;2023-06-26T11:22:35;30.90;92.30
66710;DHT22;53624;0.000;0.000;2023-06-26T11:25:03;30.40;87.50
66710;DHT22;53624;0.000;0.000;2023-06-26T11:27:31;30.30;90.20
66710;DHT22;53624;0.000;0.000;2023-06-26T11:29:59;30.40;90.50
66710;DHT22;53624;0.000;0.000;2023-06-26T11:32:27;30.50;90.80
66710;DHT22;53624;0.000;0.000;2023-06-26T11:34:55;30.60;90.30
66710;DHT22;53624;0.000;0.000;2023-06-26T11:37:23;30.60;90.10
66710;DHT22;53624;0.000;0.000;2023-06-26T11:39:52;30.60;87.70
66710;DHT22;53624;0.000;0.000;2023-06-26T11:42:20;30.70;88.10
66710;DHT22;53624;0.000;0.000;2023-06-26T11:44:48;30.70;88.50
66710;DHT22;53624;0.000;0.000;2023-06-26T11:47:15;30.60;87.40
66710;DHT22;53624;0.000;0.000;2023-06-26T11:49:44;30.40;85.80
66710;DHT22;53624;0.000;0.000;2023-06-26T11:52:11;30.40;87.40
66710;DHT22;53624;0.000;0.000;2023-06-26T11:54:39;30.50;87.20
66710;DHT22;53624;0.000;0.000;2023-06-26T11:57:09;30.30;89.30
66710;DHT22;53624;0.000;0.000;2023-06-26T11:59:40;30.30;88.70
66710;DHT22;53624;0.000;0.000;2023-06-26T12:02:08;30.50;89.90
66710;DHT22;53624;0.000;0.000;2023-06-26T12:04:37;30.50;84.50
66710;DHT22;53624;0.000;0.000;2023-06-26T12:07:05;30.60;85.30
66710;DHT22;53624;0.000;0.000;2023-06-26T12:09:37;30.70;85.60
66710;DHT22;53624;0.000;0.000;2023-06-26T12:12:06;30.60;86.10
66710;DHT22;53624;0.000;0.000;2023-06-26T12:14:36;30.60;86.80
66710;DHT22;53624;0.000;0.000;2023-06-26T12:17:05;30.60;85.60
66710;DHT22;53624;0.000;0.000;2023-06-26T12:19:36;30.70;86.30
66710;DHT22;53624;0.000;0.000;2023-06-26T12:22:06;30.40;87.30
66710;DHT22;53624;0.000;0.000;2023-06-26T12:24:35;30.20;86.20
66710;DHT22;53624;0.000;0.000;2023-06-26T12:27:07;30.30;87.80
66710;DHT22;53624;0.000;0.000;2023-06-26T12:29:37;30.40;88.00
66710;DHT22;53624;0.000;0.000;2023-06-26T12:32:08;30.60;89.00
66710;DHT22;53624;0.000;0.000;2023-06-26T12:34:36;30.70;89.10
66710;DHT22;53624;0.000;0.000;2023-06-26T12:37:04;30.70;89.20
66710;DHT22;53624;0.000;0.000;2023-06-26T12:39:44;30.80;88.70
66710;DHT22;53624;0.000;0.000;2023-06-26T12:42:13;30.80;89.30
66710;DHT22;53624;0.000;0.000;2023-06-26T12:44:43;30.80;86.80
66710;DHT22;53624;0.000;0.000;2023-06-26T12:47:10;30.70;87.70
66710;DHT22;53624;0.000;0.000;2023-06-26T12:49:40;30.80;87.00
66710;DHT22;53624;0.000;0.000;2023-06-26T12:52:09;30.50;85.00
66710;DHT22;53624;0.000;0.000;2023-06-26T12:54:37;30.50;85.90
66710;DHT22;53624;0.000;0.000;2023-06-26T12:57:05;30.40;84.80
66710;DHT22;53624;0.000;0.000;2023-06-26T12:59:33;30.50;84.50
66710;DHT22;53624;0.000;0.000;2023-06-26T13:02:02;30.40;84.10
66710;DHT22;53624;0.000;0.000;2023-06-26T13:04:29;30.50;87.90
66710;DHT22;53624;0.000;0.000;2023-06-26T13:06:57;30.50;90.40
66710;DHT22;53624;0.000;0.000;2023-06-26T13:09:24;30.50;89.20
66710;DHT22;53624;0.000;0.000;2023-06-26T13:11:52;30.60;87.80
66710;DHT22;53624;0.000;0.000;2023-06-26T13:14:20;30.30;84.90
66710;DHT22;53624;0.000;0.000;2023-06-26T13:16:47;30.40;86.00
66710;DHT22;53624;0.000;0.000;2023-06-26T13:19:16;30.50;87.80
66710;DHT22;53624;0.000;0.000;2023-06-26T13:21:43;30.50;87.00
66710;DHT22;53624;0.000;0.000;2023-06-26T13:24:11;30.60;86.50
66710;DHT22;53624;0.000;0.000;2023-06-26T13:26:39;30.60;86.50
66710;DHT22;53624;0.000;0.000;2023-06-26T13:29:06;30.60;87.90
66710;DHT22;53624;0.000;0.000;2023-06-26T13:31:34;30.40;84.30
66710;DHT22;53624;0.000;0.000;2023-06-26T13:34:02;30.30;85.40
66710;DHT22;53624;0.000;0.000;2023-06-26T13:36:32;30.40;86.20
66710;DHT22;53624;0.000;0.000;2023-06-26T13:39:01;30.50;86.70
66710;DHT22;53624;0.000;0.000;2023-06-26T13:41:29;30.60;86.90
66710;DHT22;53624;0.000;0.000;2023-06-26T13:43:56;30.50;87.50
66710;DHT22;53624;0.000;0.000;2023-06-26T13:46:24;30.60;87.60
66710;DHT22;53624;0.000;0.000;2023-06-26T13:48:53;30.60;87.60
66710;DHT22;53624;0.000;0.000;2023-06-26T13:51:21;30.60;85.90
66710;DHT22;53624;0.000;0.000;2023-06-26T13:53:50;30.60;83.50
66710;DHT22;53624;0.000;0.000;2023-06-26T13:56:17;30.60;85.90
66710;DHT22;53624;0.000;0.000;2023-06-26T13:58:44;30.60;87.00
66710;DHT22;53624;0.000;0.000;2023-06-26T14:01:12;30.60;86.20
66710;DHT22;53624;0.000;0.000;2023-06-26T14:03:40;30.60;84.20
66710;DHT22;53624;0.000;0.000;2023-06-26T14:06:07;30.60;85.50
66710;DHT22;53624;0.000;0.000;2023-06-26T14:08:35;30.40;85.40
66710;DHT22;53624;0.000;0.000;2023-06-26T14:11:04;30.40;85.60
66710;DHT22;53624;0.000;0.000;2023-06-26T14:13:31;30.40;83.60
66710;DHT22;53624;0.000;0.000;2023-06-26T14:15:59;30.40;85.40
66710;DHT22;53624;0.000;0.000;2023-06-26T14:18:26;30.50;86.20
66710;DHT22;53624;0.000;0.000;2023-06-26T14:20:54;30.50;86.30
66710;DHT22;53624;0.000;0.000;2023-06-26T14:23:22;30.50;86.80
66710;DHT22;53624;0.000;0.000;2023-06-26T14:25:50;30.50;87.50
66710;DHT22;53624;0.000;0.000;2023-06-26T14:28:19;30.40;87.50
66710;DHT22;53624;0.000;0.000;2023-06-26T14:30:47;30.40;85.00
66710;DHT22;53624;0.000;0.000;2023-06-26T14:33:14;30.40;86.80
66710;DHT22;53624;0.000;0.000;2023-06-26T14:35:42;30.40;86.50
66710;DHT22;53624;0.000;0.000;2023-06-26T14:38:09;30.30;84.20
66710;DHT22;53624;0.000;0.000;2023-06-26T14:40:37;30.10;84.50
66710;DHT22;53624;0.000;0.000;2023-06-26T14:43:04;29.90;84.30
66710;DHT22;53624;0.000;0.000;2023-06-26T14:45:33;30.10;85.00
66710;DHT22;53624;0.000;0.000;2023-06-26T14:48:00;30.20;85.80
66710;DHT22;53624;0.000;0.000;2023-06-26T14:50:28;30.20;87.70
66710;DHT22;53624;0.000;0.000;2023-06-26T14:52:55;30.10;89.90
66710;DHT22;53624;0.000;0.000;2023-06-26T14:55:23;30.10;88.50
66710;DHT22;53624;0.000;0.000;2023-06-26T14:57:50;30.00;82.70
66710;DHT22;53624;0.000;0.000;2023-06-26T15:00:18;30.00;85.80
66710;DHT22;53624;0.000;0.000;2023-06-26T15:02:47;30.10;88.10
66710;DHT22;53624;0.000;0.000;2023-06-26T15:05:15;30.10;88.20
66710;DHT22;53624;0.000;0.000;2023-06-26T15:07:42;30.20;88.10
66710;DHT22;53624;0.000;0.000;2023-06-26T15:10:10;30.20;86.40
66710;DHT22;53624;0.000;0.000;2023-06-26T15:12:37;30.20;87.20
66710;DHT22;53624;0.000;0.000;2023-06-26T15:15:05;30.10;88.10
66710;DHT22;53624;0.000;0.000;2023-06-26T15:17:33;30.10;88.80
66710;DHT22;53624;0.000;0.000;2023-06-26T15:20:02;30.00;86.60
66710;DHT22;53624;0.000;0.000;2023-06-26T15:22:30;29.90;86.60
66710;DHT22;53624;0.000;0.000;2023-06-26T15:24:59;29.90;87.00
66710;DHT22;53624;0.000;0.000;2023-06-26T15:27:26;29.80;88.40
66710;DHT22;53624;0.000;0.000;2023-06-26T15:29:54;29.80;89.40
66710;DHT22;53624;0.000;0.000;2023-06-26T15:32:21;29.90;88.70
66710;DHT22;53624;0.000;0.000;2023-06-26T15:34:49;29.90;86.80
66710;DHT22;53624;0.000;0.000;2023-06-26T15:37:17;29.70;87.50
66710;DHT22;53624;0.000;0.000;2023-06-26T15:39:45;29.60;87.50
66710;DHT22;53624;0.000;0.000;2023-06-26T15:42:12;29.50;87.90
66710;DHT22;53624;0.000;0.000;2023-06-26T15:44:40;29.50;88.50
66710;DHT22;53624;0.000;0.000;2023-06-26T15:47:07;29.50;86.10
66710;DHT22;53624;0.000;0.000;2023-06-26T15:49:35;29.60;87.10
66710;DHT22;53624;0.000;0.000;2023-06-26T15:52:03;29.50;88.20